createdAt,value
2022-10-11T01:16:22.544Z,3.00
2022-10-11T01:21:13.250Z,2.67
2022-10-11T01:25:44.298Z,2.47
2022-10-11T01:30:33.359Z,2.37
2022-10-11T01:44:08.402Z,2.97
2022-10-11T01:48:33.580Z,2.60
2022-10-11T01:53:29.556Z,2.63
2022-10-11T01:58:31.053Z,2.50
2022-10-11T02:03:19.468Z,2.47
2022-10-11T02:08:15.730Z,2.60
2022-10-11T02:12:45.969Z,2.23
2022-10-11T02:17:21.678Z,2.77
2022-10-11T02:21:54.497Z,2.20
2022-10-11T02:26:22.006Z,2.17
2022-10-11T02:30:49.854Z,2.27
2022-10-11T02:35:15.492Z,2.30
2022-10-11T02:39:46.915Z,2.20
2022-10-11T02:44:33.505Z,2.33
2022-10-11T02:49:00.620Z,3.00
2022-10-11T02:53:27.138Z,2.30
2022-10-11T02:57:52.309Z,2.47
2022-10-11T03:02:17.508Z,2.70
2022-10-11T03:06:42.775Z,1.93
2022-10-11T03:11:08.025Z,2.80
2022-10-11T03:15:33.578Z,1.97
2022-10-11T03:19:58.756Z,2.50
2022-10-11T03:24:23.972Z,2.43
2022-10-11T03:28:49.386Z,1.77
2022-10-11T03:33:14.734Z,2.77
2022-10-11T03:37:39.908Z,2.50
2022-10-11T03:55:20.412Z,2.90
2022-10-11T03:59:45.603Z,2.90
2022-10-11T04:04:10.839Z,3.00
2022-10-11T04:08:36.007Z,2.10
2022-10-11T04:13:01.213Z,2.40
2022-10-11T04:17:26.584Z,2.43
2022-10-11T04:21:51.767Z,2.40
2022-10-11T04:26:16.925Z,2.60
2022-10-11T04:30:42.213Z,2.70
2022-10-11T04:35:07.938Z,2.07
2022-10-11T04:39:33.073Z,1.83
2022-10-11T04:43:58.236Z,2.10
2022-10-11T04:52:48.620Z,2.47
2022-10-11T04:57:13.804Z,2.10
2022-10-11T05:01:39.216Z,2.43
2022-10-11T05:06:06.300Z,2.07
2022-10-11T05:10:31.576Z,2.20
2022-10-11T05:14:57.913Z,2.20
2022-10-11T05:19:23.077Z,2.87
2022-10-11T05:23:49.784Z,2.20
2022-10-11T05:28:15.005Z,2.30
2022-10-11T05:32:40.243Z,2.30
2022-10-11T05:37:05.673Z,2.40
2022-10-11T05:41:30.961Z,2.27
2022-10-11T05:45:56.335Z,2.40
2022-10-11T05:50:24.301Z,2.20
2022-10-11T05:54:50.964Z,2.87
2022-10-11T05:59:16.224Z,3.07
2022-10-11T06:03:41.385Z,2.57
2022-10-11T06:08:08.677Z,2.47
2022-10-11T06:12:34.166Z,2.50
2022-10-11T06:16:59.416Z,2.60
2022-10-11T06:21:25.139Z,2.50
2022-10-11T06:26:03.273Z,2.70
2022-10-11T06:30:28.763Z,3.10
2022-10-11T06:34:54.048Z,4.33
2022-10-11T06:39:20.007Z,2.90
2022-10-11T06:43:46.062Z,2.83
2022-10-11T06:48:11.433Z,3.37
2022-10-11T06:52:36.660Z,2.70
2022-10-11T06:57:01.852Z,2.90
2022-10-11T07:01:27.961Z,3.40
2022-10-11T07:05:53.263Z,2.87
2022-10-11T07:10:18.477Z,2.90
2022-10-11T07:14:43.643Z,2.50
2022-10-11T07:19:09.923Z,3.03
2022-10-11T07:23:35.563Z,3.23
2022-10-11T07:28:00.783Z,2.90
2022-10-11T07:32:26.034Z,3.07
2022-10-11T07:36:51.219Z,2.33
2022-10-11T07:41:16.934Z,3.20
2022-10-11T07:45:45.215Z,2.97
2022-10-11T07:50:10.706Z,2.73
2022-10-11T07:54:35.896Z,2.80
2022-10-11T07:59:03.559Z,2.90
2022-10-11T08:03:29.452Z,3.20
2022-10-11T08:07:54.920Z,3.07
2022-10-11T08:12:20.153Z,2.93
2022-10-11T08:16:45.358Z,2.80
2022-10-11T08:21:13.827Z,2.53
2022-10-11T08:25:42.639Z,2.90
2022-10-11T08:30:08.788Z,2.30
2022-10-11T08:34:34.049Z,2.70
2022-10-11T08:48:40.709Z,2.47
2022-10-11T08:53:41.485Z,2.87
2022-10-11T08:58:06.923Z,2.37
2022-10-11T09:03:02.827Z,2.73
2022-10-11T09:12:54.560Z,3.10
2022-10-11T09:17:43.437Z,2.60
2022-10-11T09:22:30.780Z,1.97
2022-10-11T09:27:00.864Z,2.13
2022-10-11T09:31:26.225Z,3.10
2022-10-11T09:35:52.662Z,1.93
2022-10-11T09:40:36.299Z,2.27
2022-10-11T09:45:02.128Z,2.33
2022-10-11T09:49:46.625Z,2.23
2022-10-11T10:03:04.902Z,2.97
2022-10-11T10:07:33.447Z,2.80
2022-10-11T10:11:58.798Z,1.73
2022-10-11T10:16:27.772Z,2.30
2022-10-11T10:20:59.616Z,2.43
2022-10-11T10:25:39.581Z,2.03
2022-10-11T10:30:15.754Z,2.10
2022-10-11T10:35:03.763Z,2.87
2022-10-11T10:40:04.022Z,2.33
2022-10-11T10:44:29.367Z,2.20
2022-10-11T10:49:55.751Z,2.70
2022-10-11T10:54:35.220Z,1.80
2022-10-11T10:59:43.131Z,2.50
2022-10-11T11:04:31.573Z,2.10
2022-10-11T11:09:31.104Z,2.43
2022-10-11T11:14:27.764Z,2.20
2022-10-11T11:19:05.387Z,2.00
2022-10-11T12:11:00.923Z,2.57
2022-10-11T19:25:13.167Z,3.20
2022-10-11T19:29:38.433Z,3.30
2022-10-11T19:56:14.618Z,3.70
2022-10-11T20:05:05.985Z,4.37
2022-10-11T20:13:57.297Z,3.37
2022-10-11T20:18:22.561Z,3.80
2022-10-11T20:22:47.798Z,3.67
2022-10-11T20:27:12.965Z,4.30
2022-10-11T20:31:38.852Z,4.97
2022-10-11T20:36:06.859Z,4.13
2022-10-11T20:40:32.278Z,4.33
2022-10-11T20:44:58.737Z,4.10
2022-10-11T20:49:23.975Z,5.20
2022-10-11T20:53:50.032Z,4.47
2022-10-11T20:58:15.960Z,3.60
2022-10-11T21:02:41.261Z,4.13
2022-10-11T21:07:06.448Z,4.23
2022-10-11T21:11:33.707Z,4.80
2022-10-11T21:16:14.762Z,4.50
2022-10-11T21:20:44.550Z,4.23
2022-10-11T21:25:09.803Z,4.67
2022-10-11T21:29:34.980Z,4.27
2022-10-11T21:34:00.259Z,5.10
2022-10-11T21:38:25.504Z,4.87
2022-10-11T21:42:50.738Z,5.00
2022-10-11T21:47:16.619Z,4.83
2022-10-11T21:51:41.865Z,4.73
2022-10-11T21:56:07.814Z,5.73
2022-10-11T22:00:32.987Z,4.43
2022-10-11T22:04:58.143Z,4.33
2022-10-11T22:09:23.421Z,4.60
2022-10-11T22:13:49.427Z,5.17
2022-10-11T22:18:14.582Z,4.37
2022-10-11T22:22:39.824Z,4.57
2022-10-11T22:27:05.040Z,4.40
2022-10-11T22:31:31.244Z,4.00
2022-10-11T22:35:59.032Z,4.60
2022-10-11T22:40:24.240Z,5.07
2022-10-11T22:44:50.687Z,3.57
2022-10-11T22:49:15.841Z,4.57
2022-10-11T22:53:41.002Z,3.40
2022-10-11T22:58:06.625Z,4.07
2022-10-11T23:02:31.811Z,3.90
2022-10-11T23:07:01.216Z,3.77
2022-10-11T23:11:29.128Z,3.60
2022-10-11T23:15:54.359Z,3.90
2022-10-11T23:20:19.574Z,3.80
2022-10-11T23:24:44.751Z,3.87
2022-10-11T23:29:09.952Z,3.40
2022-10-11T23:33:35.440Z,3.70
2022-10-11T23:38:00.593Z,3.80
2022-10-11T23:42:25.769Z,3.60
2022-10-11T23:46:51.008Z,4.10
2022-10-11T23:51:16.672Z,3.90
2022-10-11T23:55:42.482Z,3.67
